Time;durP1;ratioP1;P1;durP2;ratioP2;P2;SDS_P1;SDS_P2;PMS_P1;PMS_P2;Temp;Humidity;BMP_temperature;BMP_pressure;BME280_temperature;BME280_humidity;BME280_pressure;Samples;Min_cycle;Max_cycle;Signal;HPM_P1;HPM_P2
2021/12/30 00:02:17;;;;;;;12.10;7.47;;;;;;;;;;4806880;29;20050;-82
2021/12/30 00:08:28;;;;;;;;;;;;;;;;;;4759111;30;20523;-82
2021/12/30 00:11:45;;;;;;;5.72;4.35;;;;;;;;;;4727513;30;19921;-82
2021/12/30 00:14:44;;;;;;;12.52;6.80;;;;;;;;;;4780457;30;20487;-82
2021/12/30 00:17:24;;;;;;;18.08;9.20;;;;;;;;;;4775554;30;20247;-82
2021/12/30 00:20:06;;;;;;;12.63;6.40;;;;;;;;;;4789428;30;20052;-82
2021/12/30 00:22:45;;;;;;;12.88;7.10;;;;;;;;;;4773184;30;20040;-82
2021/12/30 00:25:39;;;;;;;11.50;6.72;;;;;;;;;;4775403;30;20070;-82
2021/12/30 00:28:19;;;;;;;17.08;9.00;;;;;;;;;;4768232;30;20082;-82
2021/12/30 00:30:51;;;;;;;15.48;7.55;;;;;;;;;;4772966;30;20557;-82
2021/12/30 00:33:24;;;;;;;15.10;8.88;;;;;;;;;;4754830;30;20061;-82
2021/12/30 00:35:57;;;;;;;9.40;5.55;;;;;;;;;;4775863;30;20099;-82
2021/12/30 00:38:38;;;;;;;8.52;5.32;;;;;;;;;;4766646;30;20048;-82
2021/12/30 00:41:12;;;;;;;11.18;5.38;;;;;;;;;;4807778;24;20062;-66
2021/12/30 00:43:40;;;;;;;12.20;6.10;;;;;;;;;;4811189;29;20107;-68
2021/12/30 00:46:08;;;;;;;18.33;6.70;;;;;;;;;;4808665;29;20051;-68
2021/12/30 00:48:37;;;;;;;15.00;7.18;;;;;;;;;;4815148;29;20051;-68
2021/12/30 00:51:05;;;;;;;16.40;7.13;;;;;;;;;;4807147;29;20047;-68
2021/12/30 00:53:32;;;;;;;15.93;8.27;;;;;;;;;;4801189;29;20087;-67
2021/12/30 00:56:00;;;;;;;15.30;7.03;;;;;;;;;;4810491;29;20262;-68
2021/12/30 00:58:28;;;;;;;14.43;7.50;;;;;;;;;;4818418;29;20114;-68
2021/12/30 01:00:56;;;;;;;16.25;8.32;;;;;;;;;;4809385;29;20084;-68
2021/12/30 01:03:23;;;;;;;25.42;8.95;;;;;;;;;;4819101;29;20077;-68
2021/12/30 01:05:51;;;;;;;22.83;8.88;;;;;;;;;;4809406;29;20053;-67
2021/12/30 01:08:18;;;;;;;17.08;7.65;;;;;;;;;;4816390;29;20533;-68
2021/12/30 01:10:45;;;;;;;14.70;8.55;;;;;;;;;;4810143;29;20085;-68
2021/12/30 01:13:22;;;;;;;14.23;6.85;;;;;;;;;;4821382;29;20716;-68
2021/12/30 01:16:02;;;;;;;9.35;5.18;;;;;;;;;;4811075;29;20117;-68
2021/12/30 01:21:25;;;;;;;7.70;5.25;;;;;;;;;;4810627;29;20051;-68
2021/12/30 01:23:52;;;;;;;16.67;7.80;;;;;;;;;;4819016;29;20070;-68
2021/12/30 01:26:20;;;;;;;17.10;8.52;;;;;;;;;;4812740;29;20042;-67
2021/12/30 01:28:50;;;;;;;7.25;5.43;;;;;;;;;;4820515;29;20133;-69
2021/12/30 01:31:18;;;;;;;19.33;8.77;;;;;;;;;;4834008;29;20411;-67
2021/12/30 01:33:47;;;;;;;17.10;8.77;;;;;;;;;;4835757;29;20137;-67
2021/12/30 01:36:15;;;;;;;18.83;8.77;;;;;;;;;;4827436;29;20050;-68
2021/12/30 01:38:43;;;;;;;25.38;9.45;;;;;;;;;;4818025;29;20093;-68
2021/12/30 01:41:11;;;;;;;18.63;8.07;;;;;;;;;;4832489;29;20080;-68
2021/12/30 01:43:38;;;;;;;28.65;9.93;;;;;;;;;;4827673;29;20145;-67
2021/12/30 01:46:06;;;;;;;25.25;9.20;;;;;;;;;;4828430;29;20133;-68
2021/12/30 01:48:34;;;;;;;21.02;9.35;;;;;;;;;;4827381;29;20056;-67
2021/12/30 01:51:02;;;;;;;18.48;8.32;;;;;;;;;;4830839;29;20119;-67
2021/12/30 01:53:30;;;;;;;13.30;7.28;;;;;;;;;;4831594;29;20602;-68
2021/12/30 01:55:57;;;;;;;18.55;8.80;;;;;;;;;;4834174;29;20128;-68
2021/12/30 01:58:25;;;;;;;25.13;9.15;;;;;;;;;;4835153;29;20046;-68
2021/12/30 02:00:52;;;;;;;23.10;8.70;;;;;;;;;;4818692;29;20311;-68
2021/12/30 02:03:20;;;;;;;16.52;7.90;;;;;;;;;;4820017;29;20042;-68
2021/12/30 02:05:48;;;;;;;22.75;9.32;;;;;;;;;;4831417;29;20106;-67
2021/12/30 02:08:17;;;;;;;22.08;9.07;;;;;;;;;;4829943;29;20074;-67
2021/12/30 02:10:46;;;;;;;20.27;8.52;;;;;;;;;;4814247;29;20056;-67
2021/12/30 02:13:15;;;;;;;30.48;10.45;;;;;;;;;;4817196;29;20065;-69
2021/12/30 02:15:42;;;;;;;19.50;8.68;;;;;;;;;;4816822;29;20089;-68
2021/12/30 02:18:10;;;;;;;20.50;8.70;;;;;;;;;;4817765;29;20137;-68
2021/12/30 02:20:56;;;;;;;29.00;9.48;;;;;;;;;;4815920;29;20399;-68
2021/12/30 02:23:25;;;;;;;29.08;8.98;;;;;;;;;;4815685;29;20137;-67
2021/12/30 02:25:53;;;;;;;25.38;9.35;;;;;;;;;;4815937;29;20054;-67
2021/12/30 02:28:25;;;;;;;25.23;8.10;;;;;;;;;;4813156;29;20070;-67
2021/12/30 02:30:54;;;;;;;26.08;9.10;;;;;;;;;;4818528;29;20043;-68
2021/12/30 02:33:21;;;;;;;25.65;8.95;;;;;;;;;;4818967;29;20090;-67
2021/12/30 02:35:49;;;;;;;18.02;7.90;;;;;;;;;;4818407;29;20045;-67
2021/12/30 02:38:17;;;;;;;23.50;8.52;;;;;;;;;;4820263;29;20046;-68
2021/12/30 02:40:45;;;;;;;20.85;8.15;;;;;;;;;;4817625;29;20124;-67
2021/12/30 02:43:17;;;;;;;35.40;9.18;;;;;;;;;;4819110;29;20468;-67
2021/12/30 02:45:45;;;;;;;25.38;9.10;;;;;;;;;;4814598;29;20057;-67
2021/12/30 02:48:14;;;;;;;16.20;8.05;;;;;;;;;;4802437;29;20043;-67
2021/12/30 02:50:42;;;;;;;25.13;8.93;;;;;;;;;;4800920;29;20388;-67
2021/12/30 02:53:10;;;;;;;30.38;9.45;;;;;;;;;;4806931;29;20057;-67
2021/12/30 02:55:38;;;;;;;25.98;8.98;;;;;;;;;;4808638;29;20121;-68
2021/12/30 02:58:06;;;;;;;24.83;8.93;;;;;;;;;;4808760;29;20141;-67
2021/12/30 03:00:33;;;;;;;19.95;8.93;;;;;;;;;;4807836;29;20129;-67
2021/12/30 03:03:01;;;;;;;18.83;8.52;;;;;;;;;;4808113;29;20051;-67
2021/12/30 03:05:29;;;;;;;19.90;8.82;;;;;;;;;;4807848;29;20586;-68
2021/12/30 03:07:56;;;;;;;25.77;9.20;;;;;;;;;;4808101;29;20571;-67
2021/12/30 03:10:25;;;;;;;18.83;8.75;;;;;;;;;;4807323;29;20507;-67
2021/12/30 03:12:56;;;;;;;25.40;9.55;;;;;;;;;;4808036;29;20054;-68
2021/12/30 03:15:26;;;;;;;24.75;9.23;;;;;;;;;;4807968;29;20130;-68
2021/12/30 03:17:54;;;;;;;21.83;8.82;;;;;;;;;;4808253;29;20074;-68
2021/12/30 03:20:21;;;;;;;25.70;10.02;;;;;;;;;;4806333;29;20353;-68
2021/12/30 03:22:49;;;;;;;23.75;9.43;;;;;;;;;;4801657;29;20146;-68
2021/12/30 03:25:16;;;;;;;34.63;9.73;;;;;;;;;;4790463;29;20389;-67
2021/12/30 03:27:44;;;;;;;24.60;9.02;;;;;;;;;;4807253;29;20134;-68
2021/12/30 03:30:13;;;;;;;17.95;8.40;;;;;;;;;;4806566;29;20057;-68
2021/12/30 03:32:41;;;;;;;14.20;7.20;;;;;;;;;;4806341;29;20222;-67
2021/12/30 03:35:09;;;;;;;25.52;9.07;;;;;;;;;;4807858;29;20115;-67
2021/12/30 03:37:37;;;;;;;25.85;8.90;;;;;;;;;;4807500;29;20108;-67
2021/12/30 03:40:06;;;;;;;23.73;8.73;;;;;;;;;;4807424;29;20145;-67
2021/12/30 03:42:34;;;;;;;23.73;9.57;;;;;;;;;;4806309;29;20042;-67
2021/12/30 03:45:02;;;;;;;10.63;6.60;;;;;;;;;;4807954;29;20138;-67
2021/12/30 03:47:30;;;;;;;8.77;6.50;;;;;;;;;;4807331;29;20591;-67
2021/12/30 03:49:57;;;;;;;13.07;7.45;;;;;;;;;;4810639;29;20162;-67
2021/12/30 03:52:30;;;;;;;12.77;7.32;;;;;;;;;;4804123;29;20051;-68
2021/12/30 03:54:58;;;;;;;16.05;8.57;;;;;;;;;;4805573;29;20156;-67
2021/12/30 03:57:25;;;;;;;23.75;9.88;;;;;;;;;;4804991;29;20106;-68
2021/12/30 03:59:52;;;;;;;22.50;9.57;;;;;;;;;;4804448;29;20107;-68
2021/12/30 04:02:20;;;;;;;11.13;6.32;;;;;;;;;;4821136;29;20057;-68
2021/12/30 04:04:47;;;;;;;14.40;7.72;;;;;;;;;;4819838;29;20058;-68
2021/12/30 04:07:15;;;;;;;18.30;9.00;;;;;;;;;;4804641;29;20204;-67
2021/12/30 04:09:42;;;;;;;20.85;8.60;;;;;;;;;;4801853;29;20059;-67
2021/12/30 04:12:10;;;;;;;19.85;9.13;;;;;;;;;;4801790;29;20058;-68
2021/12/30 04:14:38;;;;;;;16.85;8.20;;;;;;;;;;4801961;29;20054;-68
2021/12/30 04:17:06;;;;;;;25.02;11.70;;;;;;;;;;4787204;29;20133;-68
2021/12/30 04:19:33;;;;;;;10.73;6.68;;;;;;;;;;4801631;29;20142;-68
2021/12/30 04:22:00;;;;;;;16.67;8.48;;;;;;;;;;4804206;29;20507;-67
2021/12/30 04:24:28;;;;;;;24.98;9.52;;;;;;;;;;4786735;29;20054;-68
2021/12/30 04:26:55;;;;;;;15.68;8.77;;;;;;;;;;4797660;29;20086;-69
2021/12/30 04:29:22;;;;;;;12.73;8.02;;;;;;;;;;4804124;29;20069;-67
2021/12/30 04:31:51;;;;;;;15.35;7.80;;;;;;;;;;4804081;29;20069;-67
2021/12/30 04:34:18;;;;;;;21.33;9.70;;;;;;;;;;4804521;29;20423;-67
2021/12/30 04:36:46;;;;;;;20.75;9.75;;;;;;;;;;4803709;29;20145;-68
2021/12/30 04:39:13;;;;;;;15.73;9.65;;;;;;;;;;4804519;29;20590;-68
2021/12/30 04:41:41;;;;;;;15.77;8.82;;;;;;;;;;4802259;29;20093;-68
2021/12/30 04:44:08;;;;;;;16.42;8.68;;;;;;;;;;4804243;29;20582;-67
2021/12/30 04:46:37;;;;;;;15.70;8.43;;;;;;;;;;4803478;29;20075;-67
2021/12/30 04:49:05;;;;;;;22.08;9.32;;;;;;;;;;4803457;29;20380;-67
2021/12/30 04:51:32;;;;;;;23.40;9.52;;;;;;;;;;4803331;29;20043;-68
2021/12/30 04:53:59;;;;;;;19.80;9.27;;;;;;;;;;4802858;29;20122;-68
2021/12/30 04:56:27;;;;;;;16.63;8.20;;;;;;;;;;4803561;29;20042;-67
2021/12/30 04:58:54;;;;;;;18.90;8.98;;;;;;;;;;4803862;29;20130;-68
2021/12/30 05:01:22;;;;;;;13.77;8.32;;;;;;;;;;4802988;29;20483;-67
2021/12/30 05:03:50;;;;;;;14.55;7.50;;;;;;;;;;4827382;29;20038;-67
2021/12/30 05:06:17;;;;;;;22.50;8.85;;;;;;;;;;4826756;29;20058;-67
2021/12/30 05:08:44;;;;;;;15.90;9.45;;;;;;;;;;4826021;29;20123;-66
2021/12/30 05:11:12;;;;;;;16.35;9.00;;;;;;;;;;4827058;29;20035;-67
2021/12/30 05:13:39;;;;;;;13.15;7.13;;;;;;;;;;4828017;29;20031;-67
2021/12/30 05:16:06;;;;;;;8.43;5.63;;;;;;;;;;4813037;29;20082;-67
2021/12/30 05:18:36;;;;;;;17.23;9.25;;;;;;;;;;4805927;29;20058;-67
2021/12/30 05:21:04;;;;;;;17.50;8.55;;;;;;;;;;4803643;29;20138;-67
2021/12/30 05:23:32;;;;;;;18.40;8.55;;;;;;;;;;4792873;29;20053;-67
2021/12/30 05:25:59;;;;;;;10.18;7.15;;;;;;;;;;4791521;29;20194;-68
2021/12/30 05:28:27;;;;;;;9.98;5.85;;;;;;;;;;4802947;29;20051;-67
2021/12/30 05:30:54;;;;;;;15.38;8.00;;;;;;;;;;4802730;29;20062;-67
2021/12/30 05:33:22;;;;;;;11.52;6.43;;;;;;;;;;4802180;29;20070;-68
2021/12/30 05:35:49;;;;;;;6.03;4.35;;;;;;;;;;4803133;29;20114;-68
2021/12/30 05:38:17;;;;;;;17.08;8.15;;;;;;;;;;4803868;29;20141;-68
2021/12/30 05:40:45;;;;;;;15.63;6.93;;;;;;;;;;4802498;29;20074;-68
2021/12/30 05:43:12;;;;;;;16.05;7.50;;;;;;;;;;4803240;29;20074;-67
2021/12/30 05:45:42;;;;;;;9.98;6.32;;;;;;;;;;4803360;29;20137;-68
2021/12/30 05:48:10;;;;;;;19.48;11.60;;;;;;;;;;4803296;29;20050;-68
2021/12/30 05:50:37;;;;;;;14.77;8.70;;;;;;;;;;4802475;29;20129;-67
2021/12/30 05:53:05;;;;;;;8.35;5.78;;;;;;;;;;4803117;29;20134;-68
2021/12/30 05:55:32;;;;;;;17.90;9.18;;;;;;;;;;4802818;29;20574;-67
2021/12/30 05:57:59;;;;;;;20.80;9.15;;;;;;;;;;4801990;29;20082;-67
2021/12/30 06:00:30;;;;;;;18.17;9.00;;;;;;;;;;4802153;29;20137;-67
2021/12/30 06:02:58;;;;;;;11.82;6.93;;;;;;;;;;4802596;29;20541;-69
2021/12/30 06:05:27;;;;;;;14.15;8.90;;;;;;;;;;4802723;29;20051;-67
2021/12/30 06:07:55;;;;;;;13.38;7.82;;;;;;;;;;4802640;29;20070;-69
2021/12/30 06:10:22;;;;;;;18.75;8.98;;;;;;;;;;4802287;29;20161;-67
2021/12/30 06:12:49;;;;;;;15.68;7.78;;;;;;;;;;4802536;29;20125;-67
2021/12/30 06:15:17;;;;;;;16.65;8.45;;;;;;;;;;4801391;29;20045;-67
2021/12/30 06:17:44;;;;;;;20.10;9.55;;;;;;;;;;4802612;29;20154;-67
2021/12/30 06:20:13;;;;;;;19.80;9.13;;;;;;;;;;4801743;29;20046;-67
2021/12/30 06:22:42;;;;;;;11.45;5.90;;;;;;;;;;4802361;29;20054;-67
2021/12/30 06:25:10;;;;;;;20.10;9.23;;;;;;;;;;4802592;29;20090;-67
2021/12/30 06:27:37;;;;;;;10.95;6.90;;;;;;;;;;4800980;29;20492;-67
2021/12/30 06:30:06;;;;;;;19.55;7.60;;;;;;;;;;4802139;29;20105;-67
2021/12/30 06:32:33;;;;;;;13.57;7.78;;;;;;;;;;4801867;29;20046;-67
2021/12/30 06:35:01;;;;;;;10.18;6.72;;;;;;;;;;4797273;29;20117;-67
2021/12/30 06:37:30;;;;;;;17.25;8.95;;;;;;;;;;4807655;29;20463;-67
2021/12/30 06:39:58;;;;;;;15.60;7.82;;;;;;;;;;4810928;24;20114;-67
2021/12/30 06:42:25;;;;;;;14.00;7.85;;;;;;;;;;4821711;29;20042;-66
2021/12/30 06:44:52;;;;;;;10.32;6.57;;;;;;;;;;4820681;29;20049;-66
2021/12/30 06:47:20;;;;;;;17.38;8.40;;;;;;;;;;4820349;29;20057;-66
2021/12/30 06:49:47;;;;;;;12.02;7.30;;;;;;;;;;4817427;29;20332;-67
2021/12/30 06:52:14;;;;;;;9.55;6.43;;;;;;;;;;4819553;29;20503;-66
2021/12/30 06:54:42;;;;;;;7.97;6.28;;;;;;;;;;4820486;29;20038;-67
2021/12/30 06:57:14;;;;;;;13.15;7.22;;;;;;;;;;4819412;29;20519;-65
2021/12/30 06:59:42;;;;;;;10.05;6.45;;;;;;;;;;4820258;29;20472;-67
2021/12/30 07:02:09;;;;;;;6.55;5.88;;;;;;;;;;4819618;29;20073;-66
2021/12/30 07:04:38;;;;;;;10.43;6.90;;;;;;;;;;4820686;29;20523;-69
2021/12/30 07:07:05;;;;;;;8.88;6.13;;;;;;;;;;4819588;29;20072;-69
2021/12/30 07:09:33;;;;;;;7.22;5.00;;;;;;;;;;4819556;29;20046;-69
2021/12/30 07:12:00;;;;;;;14.30;7.60;;;;;;;;;;4818497;29;20034;-68
2021/12/30 07:14:29;;;;;;;9.77;6.47;;;;;;;;;;4819839;29;20402;-68
2021/12/30 07:16:56;;;;;;;14.52;8.15;;;;;;;;;;4818797;29;20054;-69
2021/12/30 07:19:23;;;;;;;12.10;7.05;;;;;;;;;;4818571;29;20050;-69
2021/12/30 07:21:52;;;;;;;21.98;9.07;;;;;;;;;;4819345;29;20055;-68
2021/12/30 07:24:23;;;;;;;14.80;8.32;;;;;;;;;;4819766;29;20098;-69
2021/12/30 07:26:51;;;;;;;4.43;3.97;;;;;;;;;;4819060;29;20061;-69
2021/12/30 07:29:18;;;;;;;8.55;5.55;;;;;;;;;;4819890;29;20069;-69
2021/12/30 07:31:47;;;;;;;13.18;7.63;;;;;;;;;;4819256;29;20081;-69
2021/12/30 07:34:14;;;;;;;17.10;8.73;;;;;;;;;;4820213;29;20046;-68
2021/12/30 07:36:42;;;;;;;12.00;6.75;;;;;;;;;;4819631;29;20077;-69
2021/12/30 07:39:09;;;;;;;10.52;6.18;;;;;;;;;;4822553;29;20072;-69
2021/12/30 07:41:37;;;;;;;17.73;9.65;;;;;;;;;;4822474;29;20050;-68
2021/12/30 07:44:04;;;;;;;13.60;7.63;;;;;;;;;;4823362;29;20140;-69
2021/12/30 07:46:32;;;;;;;16.90;8.88;;;;;;;;;;4823172;29;20134;-69
2021/12/30 07:48:59;;;;;;;19.13;8.68;;;;;;;;;;4822982;29;20136;-68
2021/12/30 07:51:28;;;;;;;24.75;16.50;;;;;;;;;;4822174;29;20050;-69
2021/12/30 07:53:55;;;;;;;12.63;9.77;;;;;;;;;;4823147;29;20137;-69
2021/12/30 07:56:22;;;;;;;17.65;11.55;;;;;;;;;;4822933;29;20046;-69
2021/12/30 07:58:55;;;;;;;10.15;6.15;;;;;;;;;;4823020;29;20104;-69
2021/12/30 08:01:25;;;;;;;13.68;8.52;;;;;;;;;;4822159;29;20050;-68
2021/12/30 08:03:53;;;;;;;13.98;9.60;;;;;;;;;;4823530;29;20537;-69
2021/12/30 08:06:21;;;;;;;13.10;8.35;;;;;;;;;;4831626;29;20141;-69
2021/12/30 08:08:49;;;;;;;18.65;11.27;;;;;;;;;;4822597;29;20077;-69
2021/12/30 08:11:16;;;;;;;17.75;9.38;;;;;;;;;;4821848;29;20046;-69
2021/12/30 08:13:43;;;;;;;19.80;9.95;;;;;;;;;;4822374;29;20038;-69
2021/12/30 08:16:12;;;;;;;11.57;6.20;;;;;;;;;;4821729;29;20050;-69
2021/12/30 08:18:39;;;;;;;15.93;8.52;;;;;;;;;;4805964;29;20503;-69
2021/12/30 08:21:07;;;;;;;17.52;9.00;;;;;;;;;;4826018;29;20056;-68
2021/12/30 08:23:35;;;;;;;17.92;8.82;;;;;;;;;;4838166;29;20046;-69
2021/12/30 08:26:06;;;;;;;11.32;7.68;;;;;;;;;;4832634;29;20054;-68
2021/12/30 08:28:33;;;;;;;18.20;8.27;;;;;;;;;;4821877;29;20533;-68
2021/12/30 08:31:01;;;;;;;14.18;7.55;;;;;;;;;;4820834;29;20053;-69
2021/12/30 08:33:28;;;;;;;15.02;7.72;;;;;;;;;;4821487;29;20456;-68
2021/12/30 08:35:55;;;;;;;17.30;8.63;;;;;;;;;;4821515;29;20396;-69
2021/12/30 08:38:23;;;;;;;11.38;8.05;;;;;;;;;;4821818;29;20080;-69
2021/12/30 08:40:50;;;;;;;18.88;8.82;;;;;;;;;;4819894;29;20114;-68
2021/12/30 08:43:18;;;;;;;18.85;9.57;;;;;;;;;;4820573;29;20050;-68
2021/12/30 08:45:46;;;;;;;10.65;6.68;;;;;;;;;;4819990;29;20038;-69
2021/12/30 08:48:15;;;;;;;9.48;6.80;;;;;;;;;;4820922;29;20049;-69
2021/12/30 08:50:42;;;;;;;14.23;8.82;;;;;;;;;;4819294;29;20062;-69
2021/12/30 08:53:10;;;;;;;14.07;8.32;;;;;;;;;;4819678;29;20137;-69
2021/12/30 08:55:37;;;;;;;20.02;9.80;;;;;;;;;;4819324;29;20043;-68
2021/12/30 08:58:05;;;;;;;14.00;7.93;;;;;;;;;;4820816;29;20055;-69
2021/12/30 09:00:34;;;;;;;17.67;9.68;;;;;;;;;;4819766;29;20137;-69
2021/12/30 09:03:04;;;;;;;13.15;8.77;;;;;;;;;;4820728;29;20138;-69
2021/12/30 09:05:35;;;;;;;12.57;7.80;;;;;;;;;;4820305;29;20487;-68
2021/12/30 09:08:03;;;;;;;16.52;8.50;;;;;;;;;;4820822;29;20096;-69
2021/12/30 09:10:35;;;;;;;23.08;12.20;;;;;;;;;;4819692;29;20093;-69
2021/12/30 09:13:02;;;;;;;16.65;9.50;;;;;;;;;;4820080;29;20049;-69
2021/12/30 09:15:30;;;;;;;12.80;8.20;;;;;;;;;;4820307;29;20112;-69
2021/12/30 09:17:58;;;;;;;18.50;10.35;;;;;;;;;;4820095;29;20111;-68
2021/12/30 09:20:25;;;;;;;20.15;10.68;;;;;;;;;;4819563;29;20042;-69
2021/12/30 09:22:53;;;;;;;21.70;10.63;;;;;;;;;;4820055;29;20418;-69
2021/12/30 09:25:23;;;;;;;18.05;9.52;;;;;;;;;;4819166;29;20074;-69
2021/12/30 09:27:52;;;;;;;13.48;8.23;;;;;;;;;;4819316;29;20047;-69
2021/12/30 09:30:19;;;;;;;16.42;8.98;;;;;;;;;;4818511;29;20053;-69
2021/12/30 09:32:48;;;;;;;20.85;10.73;;;;;;;;;;4833517;29;20068;-69
2021/12/30 09:35:15;;;;;;;17.13;8.85;;;;;;;;;;4837896;29;20052;-68
2021/12/30 09:37:43;;;;;;;20.70;10.35;;;;;;;;;;4836858;29;20078;-69
2021/12/30 09:40:13;;;;;;;31.70;12.63;;;;;;;;;;4799396;29;1084396;-69
2021/12/30 09:42:44;;;;;;;16.20;9.82;;;;;;;;;;4815580;29;20133;-69
2021/12/30 09:45:13;;;;;;;22.65;11.45;;;;;;;;;;4800952;29;20086;-69
2021/12/30 09:47:52;;;;;;;11.30;7.00;;;;;;;;;;4836726;29;20060;-69
2021/12/30 09:50:20;;;;;;;27.38;12.95;;;;;;;;;;4835088;29;20061;-69
2021/12/30 09:52:47;;;;;;;22.33;11.45;;;;;;;;;;4836530;29;20155;-69
2021/12/30 09:55:15;;;;;;;22.08;10.35;;;;;;;;;;4836037;29;20054;-69
2021/12/30 09:57:42;;;;;;;18.50;9.32;;;;;;;;;;4818031;29;20066;-69
2021/12/30 10:00:12;;;;;;;7.00;6.30;;;;;;;;;;4817044;29;20077;-68
2021/12/30 10:02:43;;;;;;;16.45;7.53;;;;;;;;;;4816339;29;20043;-68
2021/12/30 10:05:12;;;;;;;21.40;10.35;;;;;;;;;;4817470;29;20046;-68
2021/12/30 10:07:41;;;;;;;20.52;9.38;;;;;;;;;;4802357;29;20084;-68
2021/12/30 10:10:27;;;;;;;24.00;10.73;;;;;;;;;;4828331;29;20042;-69
2021/12/30 10:12:54;;;;;;;17.77;8.85;;;;;;;;;;4828867;29;20038;-68
2021/12/30 10:15:25;;;;;;;21.65;11.32;;;;;;;;;;4827014;29;20133;-68
2021/12/30 10:17:56;;;;;;;18.40;9.25;;;;;;;;;;4829364;29;20038;-68
2021/12/30 10:20:28;;;;;;;20.25;10.98;;;;;;;;;;4835494;29;20140;-69
2021/12/30 10:22:57;;;;;;;19.63;10.40;;;;;;;;;;4819574;29;20050;-70
2021/12/30 10:25:31;;;;;;;24.92;11.68;;;;;;;;;;4825407;29;20077;-69
2021/12/30 10:28:21;;;;;;;19.30;10.75;;;;;;;;;;4828812;29;20513;-66
2021/12/30 10:30:50;;;;;;;22.15;10.40;;;;;;;;;;4815416;29;20047;-68
2021/12/30 10:33:19;;;;;;;29.42;11.63;;;;;;;;;;4816523;29;20047;-68
2021/12/30 10:35:47;;;;;;;23.60;11.68;;;;;;;;;;4818381;29;20050;-68
2021/12/30 10:38:15;;;;;;;31.50;14.00;;;;;;;;;;4817340;29;20419;-67
2021/12/30 10:40:44;;;;;;;19.58;10.88;;;;;;;;;;4815994;29;20133;-67
2021/12/30 10:43:49;;;;;;;21.73;10.45;;;;;;;;;;4821442;29;20062;-67
2021/12/30 10:46:19;;;;;;;19.60;9.57;;;;;;;;;;4820336;29;20043;-68
2021/12/30 10:48:48;;;;;;;22.63;9.52;;;;;;;;;;4819197;29;20050;-68
2021/12/30 10:51:31;;;;;;;19.23;8.15;;;;;;;;;;4822555;29;20073;-67
2021/12/30 10:53:59;;;;;;;22.67;10.57;;;;;;;;;;4819976;29;20081;-68
2021/12/30 10:56:34;;;;;;;17.00;8.77;;;;;;;;;;4825249;29;20047;-68
2021/12/30 10:59:12;;;;;;;21.75;10.07;;;;;;;;;;4830136;29;20049;-68
2021/12/30 11:01:41;;;;;;;21.10;10.23;;;;;;;;;;4831133;29;20046;-68
2021/12/30 11:04:09;;;;;;;22.52;11.70;;;;;;;;;;4827284;29;20253;-69
2021/12/30 11:06:36;;;;;;;21.40;10.65;;;;;;;;;;4826011;29;20705;-69
2021/12/30 11:09:08;;;;;;;31.27;12.45;;;;;;;;;;4822506;29;20475;-69
2021/12/30 11:11:35;;;;;;;34.13;17.83;;;;;;;;;;4828702;29;20042;-67
2021/12/30 11:14:07;;;;;;;28.08;13.40;;;;;;;;;;4831765;29;20134;-68
2021/12/30 11:16:53;;;;;;;29.52;14.30;;;;;;;;;;4828538;29;20125;-69
2021/12/30 11:19:23;;;;;;;32.60;14.80;;;;;;;;;;4835809;29;20073;-69
2021/12/30 11:21:51;;;;;;;34.80;15.13;;;;;;;;;;4835482;29;20387;-67
2021/12/30 11:24:20;;;;;;;37.42;14.88;;;;;;;;;;4829462;29;20303;-68
2021/12/30 11:26:48;;;;;;;27.08;13.45;;;;;;;;;;4834831;29;20328;-68
2021/12/30 11:29:16;;;;;;;16.90;10.30;;;;;;;;;;4834496;29;20034;-68
2021/12/30 11:31:43;;;;;;;21.33;11.15;;;;;;;;;;4821555;29;20487;-68
2021/12/30 11:34:12;;;;;;;41.03;16.40;;;;;;;;;;4829254;29;20114;-68
2021/12/30 11:36:39;;;;;;;40.58;16.40;;;;;;;;;;4825791;29;20367;-68
2021/12/30 11:39:15;;;;;;;25.02;11.73;;;;;;;;;;4828328;29;20205;-69
2021/12/30 11:41:45;;;;;;;31.60;13.40;;;;;;;;;;4826122;29;20160;-67
2021/12/30 11:44:31;;;;;;;21.70;12.02;;;;;;;;;;4827892;29;20522;-69
2021/12/30 11:46:59;;;;;;;44.47;15.43;;;;;;;;;;4828962;29;20136;-69
2021/12/30 11:49:46;;;;;;;35.83;14.00;;;;;;;;;;4827188;29;20056;-69
2021/12/30 11:52:13;;;;;;;31.10;14.77;;;;;;;;;;4839241;29;20514;-69
2021/12/30 11:54:41;;;;;;;24.05;12.05;;;;;;;;;;4840292;29;20150;-69
2021/12/30 11:57:28;;;;;;;24.27;10.90;;;;;;;;;;4825181;29;20049;-69
2021/12/30 11:59:56;;;;;;;30.52;11.10;;;;;;;;;;4821503;29;20073;-68
2021/12/30 12:02:26;;;;;;;29.58;12.27;;;;;;;;;;4821431;29;20053;-69
2021/12/30 12:04:54;;;;;;;24.55;10.15;;;;;;;;;;4821861;29;20106;-69
2021/12/30 12:07:25;;;;;;;38.28;15.60;;;;;;;;;;4822120;29;20046;-68
2021/12/30 12:09:52;;;;;;;24.70;12.20;;;;;;;;;;4821727;29;20129;-68
2021/12/30 12:12:40;;;;;;;18.63;11.07;;;;;;;;;;4821053;29;20062;-69
2021/12/30 12:15:07;;;;;;;26.40;13.50;;;;;;;;;;4818901;29;20055;-68
2021/12/30 12:17:41;;;;;;;35.38;15.35;;;;;;;;;;4822532;29;20173;-69
2021/12/30 12:20:22;;;;;;;38.00;18.20;;;;;;;;;;4820663;29;20586;-71
2021/12/30 12:22:50;;;;;;;33.20;14.10;;;;;;;;;;4819681;29;20051;-72
2021/12/30 12:25:24;;;;;;;30.83;14.73;;;;;;;;;;4819388;29;20145;-73
2021/12/30 12:27:53;;;;;;;30.63;14.80;;;;;;;;;;4821523;29;20139;-72
2021/12/30 12:30:23;;;;;;;33.30;15.07;;;;;;;;;;4819750;29;20593;-70
2021/12/30 12:32:51;;;;;;;29.33;13.63;;;;;;;;;;4820964;29;20060;-71
2021/12/30 12:35:18;;;;;;;36.22;15.38;;;;;;;;;;4821164;29;20118;-75
2021/12/30 12:37:47;;;;;;;51.20;16.90;;;;;;;;;;4819529;29;20058;-69
2021/12/30 12:40:21;;;;;;;30.73;14.75;;;;;;;;;;4820132;29;20052;-68
2021/12/30 12:42:51;;;;;;;35.17;15.05;;;;;;;;;;4821168;29;20057;-69
2021/12/30 12:45:22;;;;;;;31.35;16.30;;;;;;;;;;4820970;29;20043;-69
2021/12/30 12:48:10;;;;;;;39.30;17.50;;;;;;;;;;4821244;29;20406;-70
2021/12/30 12:50:42;;;;;;;38.92;16.48;;;;;;;;;;4820082;29;20048;-70
2021/12/30 12:53:39;;;;;;;34.25;15.98;;;;;;;;;;4813877;29;20423;-69
2021/12/30 12:56:20;;;;;;;37.55;16.75;;;;;;;;;;4816818;29;20069;-70
2021/12/30 12:58:53;;;;;;;38.50;18.30;;;;;;;;;;4818969;29;20074;-70
2021/12/30 13:01:25;;;;;;;45.75;16.95;;;;;;;;;;4817383;29;20054;-69
2021/12/30 13:03:52;;;;;;;;;;;;;;;;;;4818738;29;20101;-70
2021/12/30 13:06:25;;;;;;;69.20;25.67;;;;;;;;;;4815705;29;19956;-69
2021/12/30 13:08:53;;;;;;;83.90;31.55;;;;;;;;;;4806813;29;20051;-70
2021/12/30 13:11:25;;;;;;;142.70;32.67;;;;;;;;;;4792785;29;20195;-71
2021/12/30 13:13:52;;;;;;;54.33;25.27;;;;;;;;;;4812111;29;20387;-70
2021/12/30 13:16:25;;;;;;;58.83;27.33;;;;;;;;;;4810664;29;20110;-70
2021/12/30 13:19:06;;;;;;;55.33;26.05;;;;;;;;;;4821948;29;20053;-70
2021/12/30 13:21:39;;;;;;;65.85;29.60;;;;;;;;;;4836043;29;20048;-70
2021/12/30 13:24:07;;;;;;;67.30;31.23;;;;;;;;;;4837221;29;20045;-71
2021/12/30 13:26:40;;;;;;;50.17;26.17;;;;;;;;;;4826065;29;20050;-70
2021/12/30 13:29:07;;;;;;;45.25;18.35;;;;;;;;;;4818537;29;20487;-71
2021/12/30 13:31:35;;;;;;;29.45;15.98;;;;;;;;;;4826515;29;20053;-71
2021/12/30 13:34:03;;;;;;;36.85;19.73;;;;;;;;;;4820768;29;20046;-69
2021/12/30 13:36:38;;;;;;;38.85;20.33;;;;;;;;;;4819291;29;20299;-69
2021/12/30 13:39:10;;;;;;;31.13;17.67;;;;;;;;;;4821108;29;20129;-70
2021/12/30 13:41:37;;;;;;;35.17;17.95;;;;;;;;;;4820153;29;20428;-68
2021/12/30 13:44:10;;;;;;;34.45;17.48;;;;;;;;;;4820864;29;20119;-69
2021/12/30 13:46:37;;;;;;;32.95;18.65;;;;;;;;;;4821047;29;20081;-70
2021/12/30 13:49:05;;;;;;;42.72;20.48;;;;;;;;;;4820925;29;20074;-69
2021/12/30 13:51:32;;;;;;;33.60;18.95;;;;;;;;;;4820388;29;20077;-70
2021/12/30 13:54:06;;;;;;;28.23;17.33;;;;;;;;;;4819633;29;20047;-69
2021/12/30 13:56:34;;;;;;;30.85;17.25;;;;;;;;;;4820379;29;20046;-70
2021/12/30 13:59:04;;;;;;;27.05;15.57;;;;;;;;;;4820743;29;20050;-69
2021/12/30 14:01:34;;;;;;;26.43;14.17;;;;;;;;;;4819982;29;20046;-69
2021/12/30 14:04:05;;;;;;;25.95;13.30;;;;;;;;;;4788615;29;20406;-69
2021/12/30 14:06:32;;;;;;;31.75;16.23;;;;;;;;;;4819403;29;20074;-69
2021/12/30 14:09:01;;;;;;;28.38;15.52;;;;;;;;;;4819207;29;20464;-69
2021/12/30 14:11:30;;;;;;;30.42;13.43;;;;;;;;;;4818798;29;20047;-69
2021/12/30 14:13:59;;;;;;;28.27;17.73;;;;;;;;;;4819722;29;20129;-69
2021/12/30 14:16:30;;;;;;;33.50;16.77;;;;;;;;;;4819414;29;20042;-69
2021/12/30 14:18:57;;;;;;;29.87;18.77;;;;;;;;;;4821043;29;20072;-69
2021/12/30 14:21:26;;;;;;;34.72;19.33;;;;;;;;;;4820271;29;20547;-70
2021/12/30 14:23:54;;;;;;;31.20;16.60;;;;;;;;;;4821059;29;20137;-69
2021/12/30 14:26:31;;;;;;;35.50;18.13;;;;;;;;;;4821181;29;20058;-69
2021/12/30 14:28:58;;;;;;;36.60;20.13;;;;;;;;;;4821308;29;20146;-69
2021/12/30 14:31:36;;;;;;;78.85;25.13;;;;;;;;;;4820931;29;20057;-70
2021/12/30 14:34:26;;;;;;;62.90;26.40;;;;;;;;;;4821185;29;20579;-70
2021/12/30 14:36:54;;;;;;;47.55;25.15;;;;;;;;;;4820657;29;20085;-69
2021/12/30 14:39:27;;;;;;;56.55;26.80;;;;;;;;;;4820544;29;20523;-69
2021/12/30 14:42:05;;;;;;;59.63;26.02;;;;;;;;;;4820566;29;20047;-69
2021/12/30 14:44:33;;;;;;;39.75;19.95;;;;;;;;;;4820759;29;20046;-69
2021/12/30 14:47:08;;;;;;;44.13;25.20;;;;;;;;;;4820575;29;20130;-70
2021/12/30 14:49:36;;;;;;;55.78;25.90;;;;;;;;;;4819904;29;20145;-69